createdAt,value
2024-02-14T00:00:21.933Z,1.65
2024-02-14T00:02:52.684Z,1.50
2024-02-14T00:05:19.493Z,1.40
2024-02-14T00:07:46.370Z,1.25
2024-02-14T00:10:13.117Z,1.42
2024-02-14T00:12:39.885Z,1.77
2024-02-14T00:15:08.592Z,2.17
2024-02-14T00:17:36.340Z,1.50
2024-02-14T00:20:05.142Z,1.60
2024-02-14T00:22:32.627Z,1.42
2024-02-14T00:24:59.367Z,2.25
2024-02-14T00:27:27.660Z,2.10
2024-02-14T00:29:55.423Z,1.83
2024-02-14T00:32:22.793Z,1.80
2024-02-14T00:34:51.266Z,2.03
2024-02-14T00:37:18.368Z,1.85
2024-02-14T00:39:45.129Z,1.80
2024-02-14T00:42:12.133Z,1.67
2024-02-14T00:44:39.063Z,1.70
2024-02-14T00:47:05.947Z,2.45
2024-02-14T00:49:36.165Z,1.60
2024-02-14T00:52:03.346Z,1.60
2024-02-14T00:54:30.146Z,1.90
2024-02-14T00:56:56.970Z,1.90
2024-02-14T00:59:23.974Z,2.47
2024-02-14T01:01:50.747Z,2.85
2024-02-14T01:04:18.362Z,2.00
2024-02-14T01:06:45.437Z,2.33
2024-02-14T01:09:12.190Z,2.65
2024-02-14T01:11:39.653Z,2.85
2024-02-14T01:14:07.005Z,2.97
2024-02-14T01:16:33.718Z,2.67
2024-02-14T01:19:00.648Z,2.72
2024-02-14T01:21:27.526Z,2.65
2024-02-14T01:23:54.305Z,2.97
2024-02-14T01:26:22.068Z,3.03
2024-02-14T01:28:49.552Z,2.97
2024-02-14T01:31:16.648Z,3.03
2024-02-14T01:33:45.103Z,2.97
2024-02-14T01:36:12.112Z,2.85
2024-02-14T01:38:39.032Z,3.00
2024-02-14T01:41:06.903Z,2.88
2024-02-14T01:43:33.769Z,3.63
2024-02-14T01:46:08.992Z,3.13
2024-02-14T01:48:36.448Z,3.67
2024-02-14T01:51:05.891Z,3.38
2024-02-14T01:53:33.460Z,3.53
2024-02-14T01:56:01.003Z,3.47
2024-02-14T01:58:31.324Z,3.50
2024-02-14T02:00:59.876Z,3.03
2024-02-14T02:03:27.934Z,3.35
2024-02-14T02:05:55.479Z,2.95
2024-02-14T02:08:23.256Z,3.25
2024-02-14T02:10:50.604Z,3.60
2024-02-14T02:13:17.668Z,3.60
2024-02-14T02:15:45.987Z,3.60
2024-02-14T02:18:12.922Z,3.92
2024-02-14T02:20:40.059Z,3.40
2024-02-14T02:23:07.036Z,4.30
2024-02-14T02:25:33.833Z,3.67
2024-02-14T02:28:00.949Z,4.63
2024-02-14T02:30:28.549Z,3.75
2024-02-14T02:32:55.449Z,3.97
2024-02-14T02:35:22.433Z,3.85
2024-02-14T02:37:51.686Z,4.47
2024-02-14T02:40:22.541Z,3.88
2024-02-14T02:42:51.329Z,4.32
2024-02-14T02:45:18.477Z,4.20
2024-02-14T02:47:45.287Z,4.03
2024-02-14T02:50:12.667Z,4.65
2024-02-14T02:52:39.884Z,4.20
2024-02-14T02:55:07.235Z,4.05
2024-02-14T02:57:34.804Z,4.25
2024-02-14T03:00:01.806Z,3.22
2024-02-14T03:02:28.971Z,3.97
2024-02-14T03:04:55.877Z,3.80
2024-02-14T03:07:24.545Z,3.83
2024-02-14T03:09:51.453Z,3.92
2024-02-14T03:12:20.078Z,3.15
2024-02-14T03:14:48.157Z,3.45
2024-02-14T03:17:15.004Z,3.35
2024-02-14T03:19:42.000Z,3.67
2024-02-14T03:22:10.246Z,4.20
2024-02-14T03:24:38.123Z,3.72
2024-02-14T03:27:06.396Z,3.95
2024-02-14T03:29:33.580Z,3.88
2024-02-14T03:32:05.147Z,3.58
2024-02-14T03:34:34.860Z,3.88
2024-02-14T03:37:03.528Z,3.40
2024-02-14T03:39:32.198Z,3.45
2024-02-14T03:42:02.281Z,3.47
2024-02-14T03:44:29.360Z,3.70
2024-02-14T03:46:56.170Z,3.40
2024-02-14T03:49:22.957Z,3.30
2024-02-14T03:51:54.188Z,3.45
2024-02-14T03:54:21.798Z,2.97
2024-02-14T03:56:48.670Z,3.45
2024-02-14T03:59:15.476Z,4.53
2024-02-14T04:01:46.414Z,3.60
2024-02-14T04:04:13.301Z,4.03
2024-02-14T04:06:40.322Z,3.53
2024-02-14T04:09:07.559Z,3.10
2024-02-14T04:11:34.442Z,3.30
2024-02-14T04:14:01.254Z,3.83
2024-02-14T04:16:28.149Z,3.78
2024-02-14T04:18:56.319Z,3.42
2024-02-14T04:21:23.327Z,3.20
2024-02-14T04:23:50.155Z,3.00
2024-02-14T04:26:23.524Z,2.85
2024-02-14T04:28:50.300Z,3.15
2024-02-14T04:31:17.155Z,3.05
2024-02-14T04:33:45.174Z,3.40
2024-02-14T04:36:12.564Z,2.55
2024-02-14T04:38:39.903Z,3.45
2024-02-14T04:41:06.694Z,3.08
2024-02-14T04:43:33.673Z,3.20
2024-02-14T04:46:00.775Z,3.42
2024-02-14T04:48:28.257Z,3.60
2024-02-14T04:50:55.402Z,3.08
2024-02-14T04:53:22.250Z,2.55
2024-02-14T04:55:49.078Z,3.00
2024-02-14T04:58:15.826Z,3.05
2024-02-14T05:00:42.846Z,3.08
2024-02-14T05:03:11.170Z,3.10
2024-02-14T05:05:39.186Z,3.10
2024-02-14T05:08:06.698Z,3.45
2024-02-14T05:10:33.644Z,3.30
2024-02-14T05:13:00.697Z,3.58
2024-02-14T05:15:27.544Z,3.70
2024-02-14T05:17:54.408Z,3.35
2024-02-14T05:20:21.712Z,3.00
2024-02-14T05:22:48.637Z,3.30
2024-02-14T05:25:15.431Z,3.03
2024-02-14T05:27:42.220Z,2.85
2024-02-14T05:30:11.798Z,2.90
2024-02-14T05:32:38.644Z,3.38
2024-02-14T05:35:07.233Z,3.10
2024-02-14T05:37:36.907Z,3.65
2024-02-14T05:40:08.150Z,3.28
2024-02-14T05:42:35.619Z,3.45
2024-02-14T05:45:04.690Z,2.92
2024-02-14T05:47:32.429Z,2.67
2024-02-14T05:49:59.403Z,3.42
2024-02-14T05:52:26.176Z,3.03
2024-02-14T05:54:52.900Z,3.10
2024-02-14T05:57:19.733Z,3.60
2024-02-14T05:59:46.457Z,3.10
2024-02-14T06:02:13.184Z,3.40
2024-02-14T06:04:39.869Z,3.50
2024-02-14T06:07:07.991Z,3.13
2024-02-14T06:09:34.821Z,3.10
2024-02-14T06:12:01.568Z,3.13
2024-02-14T06:14:29.936Z,3.03
2024-02-14T06:16:56.721Z,3.72
2024-02-14T06:19:24.189Z,2.92
2024-02-14T06:21:50.998Z,3.92
2024-02-14T06:24:20.174Z,3.30
2024-02-14T06:26:47.333Z,4.05
2024-02-14T06:29:14.202Z,3.33
2024-02-14T06:31:40.984Z,3.28
2024-02-14T06:34:09.445Z,3.75
2024-02-14T06:36:37.031Z,3.20
2024-02-14T06:39:04.026Z,3.70
2024-02-14T06:41:31.097Z,3.92
2024-02-14T06:43:58.552Z,3.67
2024-02-14T06:46:25.275Z,4.03
2024-02-14T06:48:52.297Z,3.47
2024-02-14T06:51:19.235Z,3.38
2024-02-14T06:53:46.568Z,3.83
2024-02-14T06:56:13.284Z,4.25
2024-02-14T06:58:40.058Z,4.53
2024-02-14T07:01:06.907Z,3.85
2024-02-14T07:03:33.844Z,3.88
2024-02-14T07:06:01.182Z,3.30
2024-02-14T07:08:29.652Z,3.60
2024-02-14T07:10:57.631Z,3.78
2024-02-14T07:13:24.550Z,3.30
2024-02-14T07:15:51.339Z,3.80
2024-02-14T07:18:18.246Z,3.45
2024-02-14T07:20:45.110Z,3.53
2024-02-14T07:23:11.886Z,3.75
2024-02-14T07:25:38.887Z,4.40
2024-02-14T07:28:06.209Z,3.22
2024-02-14T07:30:33.220Z,3.65
2024-02-14T07:33:00.090Z,3.22
2024-02-14T07:35:26.909Z,3.30
2024-02-14T07:37:54.057Z,3.40
2024-02-14T07:40:21.585Z,3.50
2024-02-14T07:42:48.500Z,3.78
2024-02-14T07:45:15.740Z,3.97
2024-02-14T07:47:42.766Z,2.42
2024-02-14T07:50:09.940Z,3.00
2024-02-14T07:52:37.651Z,3.58
2024-02-14T07:55:04.902Z,2.97
2024-02-14T07:57:31.696Z,3.25
2024-02-14T07:59:58.513Z,3.38
2024-02-14T08:02:25.271Z,3.85
2024-02-14T08:04:53.289Z,3.10
2024-02-14T08:07:20.641Z,3.97
2024-02-14T08:09:47.406Z,3.10
2024-02-14T08:12:14.244Z,3.17
2024-02-14T08:14:41.104Z,3.30
2024-02-14T08:17:07.980Z,2.97
2024-02-14T08:19:34.894Z,3.85
2024-02-14T08:22:02.511Z,3.08
2024-02-14T08:24:29.403Z,3.08
2024-02-14T08:26:56.375Z,2.92
2024-02-14T08:29:23.239Z,3.38
2024-02-14T08:31:50.544Z,3.42
2024-02-14T08:34:17.897Z,3.40
2024-02-14T08:36:44.730Z,3.45
2024-02-14T08:39:11.670Z,4.00
2024-02-14T08:41:39.523Z,4.00
2024-02-14T08:44:06.408Z,3.17
2024-02-14T08:46:33.345Z,3.10
2024-02-14T08:49:03.876Z,3.63
2024-02-14T08:51:30.804Z,3.50
2024-02-14T08:54:00.662Z,3.30
2024-02-14T08:56:27.629Z,3.10
2024-02-14T08:58:54.375Z,3.60
2024-02-14T09:01:23.003Z,3.10
2024-02-14T09:03:51.028Z,3.20
2024-02-14T09:06:19.897Z,3.28
2024-02-14T09:08:47.185Z,3.75
2024-02-14T09:11:14.340Z,4.07
2024-02-14T09:13:43.868Z,4.85
2024-02-14T09:16:12.263Z,3.78
2024-02-14T09:18:39.660Z,3.33
2024-02-14T09:21:07.387Z,3.33
2024-02-14T09:23:35.180Z,2.92
2024-02-14T09:26:02.559Z,3.40
2024-02-14T09:28:29.506Z,3.45
2024-02-14T09:30:56.497Z,2.92
2024-02-14T09:33:23.324Z,3.55
2024-02-14T09:35:52.975Z,3.30
2024-02-14T09:38:19.988Z,2.58
2024-02-14T09:40:46.937Z,3.35
2024-02-14T09:43:36.887Z,3.38
2024-02-14T09:46:08.387Z,2.58
2024-02-14T09:48:36.239Z,2.97
2024-02-14T09:51:04.289Z,2.88
2024-02-14T09:53:31.821Z,2.85
2024-02-14T09:56:00.060Z,3.78
2024-02-14T09:58:28.358Z,3.20
2024-02-14T10:01:01.278Z,3.05
2024-02-14T10:03:28.114Z,3.42
2024-02-14T10:05:55.539Z,2.97
2024-02-14T10:08:23.282Z,3.45
2024-02-14T10:10:52.621Z,2.83
2024-02-14T10:13:21.083Z,3.10
2024-02-14T10:15:48.821Z,2.80
2024-02-14T10:18:16.681Z,3.42
2024-02-14T10:20:56.803Z,3.13
2024-02-14T10:23:23.783Z,3.13
2024-02-14T10:25:52.622Z,3.17
2024-02-14T10:28:27.314Z,2.58
2024-02-14T10:31:00.517Z,2.88
2024-02-14T10:33:30.734Z,2.85
2024-02-14T10:36:02.086Z,3.15
2024-02-14T10:38:34.046Z,3.33
2024-02-14T10:41:02.112Z,3.60
2024-02-14T10:43:29.573Z,2.70
2024-02-14T10:45:59.856Z,3.33
2024-02-14T10:48:29.107Z,3.03
2024-02-14T10:51:01.458Z,3.10
2024-02-14T10:53:34.379Z,3.90
2024-02-14T10:56:03.245Z,3.00
2024-02-14T10:58:32.044Z,2.72
2024-02-14T11:00:59.524Z,3.33
2024-02-14T11:03:27.564Z,2.55
2024-02-14T11:06:01.853Z,2.72
2024-02-14T11:08:32.787Z,2.95
2024-02-14T11:11:02.796Z,3.17
2024-02-14T11:13:33.090Z,3.15
2024-02-14T11:16:05.448Z,2.25
2024-02-14T11:18:34.261Z,2.67
2024-02-14T11:21:05.273Z,2.92
2024-02-14T11:23:32.816Z,3.40
2024-02-14T11:26:05.264Z,2.88
2024-02-14T11:28:32.215Z,2.47
2024-02-14T11:31:05.120Z,3.58
2024-02-14T11:33:32.774Z,2.75
2024-02-14T11:36:08.800Z,2.60
2024-02-14T11:38:35.889Z,3.30
2024-02-14T11:41:04.711Z,2.25
2024-02-14T11:43:31.564Z,2.60
2024-02-14T11:45:58.275Z,2.90
2024-02-14T11:48:25.671Z,2.58
2024-02-14T11:50:56.781Z,3.13
2024-02-14T11:53:24.517Z,2.67
2024-02-14T11:55:51.553Z,2.85
2024-02-14T11:58:19.239Z,2.88
2024-02-14T12:00:47.880Z,2.75
2024-02-14T12:03:18.638Z,2.53
2024-02-14T12:05:49.014Z,2.97
2024-02-14T12:08:16.748Z,2.53
2024-02-14T12:10:44.436Z,2.47
2024-02-14T12:13:17.643Z,2.47
2024-02-14T12:15:47.742Z,2.15
2024-02-14T12:18:15.047Z,2.47
2024-02-14T12:20:45.421Z,2.28
2024-02-14T12:23:18.646Z,2.70
2024-02-14T12:25:49.559Z,3.03
2024-02-14T12:28:20.496Z,2.10
2024-02-14T12:30:58.387Z,1.85
2024-02-14T12:33:29.137Z,2.55
2024-02-14T12:35:58.527Z,3.00
2024-02-14T12:38:25.667Z,1.83
2024-02-14T12:40:55.845Z,2.45
2024-02-14T12:43:22.965Z,2.63
2024-02-14T12:45:49.940Z,1.92
2024-02-14T12:48:28.225Z,2.15
2024-02-14T12:50:57.336Z,2.28
2024-02-14T12:53:24.820Z,1.92
2024-02-14T12:55:51.886Z,1.92
2024-02-14T12:58:18.786Z,1.92
2024-02-14T13:00:46.090Z,2.22
2024-02-14T13:03:16.481Z,2.00
2024-02-14T13:05:46.087Z,2.13
2024-02-14T13:08:13.124Z,2.30
2024-02-14T13:10:39.945Z,2.58
2024-02-14T13:13:06.838Z,2.13
2024-02-14T13:15:33.600Z,2.08
2024-02-14T13:18:01.438Z,1.85
2024-02-14T13:20:29.293Z,2.33
2024-02-14T13:22:56.485Z,1.80
2024-02-14T13:25:23.247Z,1.90
2024-02-14T13:27:50.276Z,1.90
2024-02-14T13:30:17.185Z,2.38
2024-02-14T13:32:44.130Z,2.25
2024-02-14T13:35:12.528Z,1.60
2024-02-14T13:37:39.361Z,1.85
2024-02-14T13:40:11.148Z,2.15
2024-02-14T13:42:41.346Z,1.77
2024-02-14T13:45:12.751Z,1.45
2024-02-14T13:47:44.797Z,2.15
2024-02-14T13:50:12.016Z,1.92
2024-02-14T13:52:39.069Z,1.88
2024-02-14T13:55:06.836Z,1.98
2024-02-14T13:57:38.941Z,1.60
2024-02-14T14:00:07.072Z,1.98
2024-02-14T14:02:34.023Z,2.20
2024-02-14T14:05:00.894Z,2.47
2024-02-14T14:07:27.703Z,2.00
2024-02-14T14:09:54.484Z,1.60
2024-02-14T14:12:21.276Z,1.60
2024-02-14T14:14:49.514Z,2.05
2024-02-14T14:17:16.329Z,2.03
2024-02-14T14:19:43.154Z,1.95
2024-02-14T14:22:10.391Z,1.88
2024-02-14T14:24:37.239Z,1.88
2024-02-14T14:27:04.188Z,2.38
2024-02-14T14:29:30.956Z,1.80
2024-02-14T14:31:58.201Z,2.10
2024-02-14T14:34:24.963Z,2.47
2024-02-14T14:36:54.384Z,2.10
2024-02-14T14:39:21.438Z,2.38
2024-02-14T14:41:48.229Z,2.28
2024-02-14T14:44:15.703Z,2.03
2024-02-14T14:46:43.438Z,2.03
2024-02-14T14:49:11.079Z,1.80
2024-02-14T14:51:41.529Z,1.80
2024-02-14T14:54:08.457Z,1.90
2024-02-14T14:56:35.440Z,1.85
2024-02-14T14:59:04.471Z,2.25
2024-02-14T15:01:32.526Z,1.40
2024-02-14T15:04:00.050Z,1.80
2024-02-14T15:06:27.155Z,1.52
2024-02-14T15:08:54.297Z,1.90
2024-02-14T15:11:21.938Z,2.40
2024-02-14T15:13:49.128Z,1.92
2024-02-14T15:16:15.931Z,2.15
2024-02-14T15:18:46.017Z,1.95
2024-02-14T15:21:15.098Z,1.65
2024-02-14T15:23:42.199Z,2.08
2024-02-14T15:26:13.104Z,2.05
2024-02-14T15:28:46.076Z,2.50
2024-02-14T15:31:31.358Z,1.90
2024-02-14T15:33:58.356Z,1.80
2024-02-14T15:36:25.385Z,1.70
2024-02-14T15:38:53.506Z,2.40
2024-02-14T15:41:20.859Z,1.80
2024-02-14T15:43:47.644Z,1.52
2024-02-14T15:46:14.904Z,2.00
2024-02-14T15:48:42.477Z,1.40
2024-02-14T15:51:10.185Z,1.63
2024-02-14T15:53:38.967Z,1.25
2024-02-14T15:56:06.826Z,0.95
2024-02-14T15:58:33.688Z,1.02
2024-02-14T16:01:00.462Z,1.00
2024-02-14T16:03:29.153Z,1.10
2024-02-14T16:05:55.992Z,1.25
2024-02-14T16:08:22.886Z,1.35
2024-02-14T16:10:51.099Z,1.52
2024-02-14T16:13:18.516Z,1.30
2024-02-14T16:15:46.096Z,1.13
2024-02-14T16:18:13.034Z,1.20
2024-02-14T16:20:39.997Z,1.40
2024-02-14T16:23:07.072Z,1.40
2024-02-14T16:25:36.706Z,1.40
2024-02-14T16:28:03.807Z,1.20
2024-02-14T16:30:30.646Z,1.85
2024-02-14T16:32:58.134Z,1.45
2024-02-14T16:35:25.589Z,1.30
2024-02-14T16:37:52.312Z,1.63
2024-02-14T16:40:19.143Z,1.40
2024-02-14T16:42:45.840Z,1.45
2024-02-14T16:45:13.948Z,1.38
2024-02-14T16:47:42.351Z,1.77
2024-02-14T16:50:09.629Z,3.28
2024-02-14T16:52:36.693Z,2.38
2024-02-14T16:55:04.548Z,1.77
2024-02-14T16:57:31.549Z,1.42
2024-02-14T16:59:58.388Z,1.80
2024-02-14T17:02:25.545Z,1.60
2024-02-14T17:04:52.664Z,2.15
2024-02-14T17:07:19.749Z,1.70
2024-02-14T17:09:46.596Z,1.98
2024-02-14T17:12:13.372Z,1.70
2024-02-14T17:14:42.584Z,1.88
2024-02-14T17:17:11.114Z,2.03
2024-02-14T17:19:38.186Z,1.95
2024-02-14T17:22:14.255Z,2.08
2024-02-14T17:24:48.554Z,2.33
2024-02-14T17:27:16.893Z,2.22
2024-02-14T17:29:45.060Z,2.00
2024-02-14T17:32:20.581Z,1.95
2024-02-14T17:34:55.475Z,2.17
2024-02-14T17:37:22.238Z,2.20
2024-02-14T17:39:49.045Z,2.08
2024-02-14T17:42:15.860Z,2.10
2024-02-14T17:44:43.745Z,2.15
2024-02-14T17:47:10.513Z,2.15
2024-02-14T17:49:37.274Z,2.20
2024-02-14T17:52:04.445Z,2.22
2024-02-14T17:54:31.574Z,2.63
2024-02-14T17:56:58.427Z,2.80
2024-02-14T17:59:25.273Z,3.03
2024-02-14T18:01:51.980Z,2.60
2024-02-14T18:04:20.687Z,2.55
2024-02-14T18:06:47.543Z,2.83
2024-02-14T18:09:14.342Z,2.92
2024-02-14T18:11:41.096Z,2.80
2024-02-14T18:14:07.828Z,2.92
2024-02-14T18:16:34.565Z,3.08
2024-02-14T18:19:01.551Z,3.40
2024-02-14T18:21:28.409Z,2.85
2024-02-14T18:23:56.028Z,2.90
2024-02-14T18:26:23.053Z,2.50
2024-02-14T18:28:50.119Z,2.70
2024-02-14T18:31:16.966Z,2.72
2024-02-14T18:33:43.990Z,3.15
2024-02-14T18:36:10.923Z,2.60
2024-02-14T18:38:38.261Z,3.05
2024-02-14T18:41:05.936Z,2.42
2024-02-14T18:43:35.569Z,2.38
2024-02-14T18:46:02.468Z,2.63
2024-02-14T18:48:29.340Z,2.80
2024-02-14T18:50:56.146Z,3.40
2024-02-14T18:53:23.248Z,4.35
2024-02-14T18:55:50.053Z,3.08
2024-02-14T18:58:17.422Z,3.70
2024-02-14T19:00:44.350Z,3.80
2024-02-14T19:03:11.545Z,3.28
2024-02-14T19:05:38.862Z,3.30
2024-02-14T19:08:07.443Z,3.03
2024-02-14T19:10:35.760Z,2.92
2024-02-14T19:13:02.519Z,3.10
2024-02-14T19:15:29.307Z,3.03
2024-02-14T19:17:57.554Z,2.97
2024-02-14T19:20:26.748Z,3.00
2024-02-14T19:22:54.941Z,2.97
2024-02-14T19:25:22.282Z,3.10
2024-02-14T19:27:49.052Z,2.88
2024-02-14T19:30:16.062Z,3.58
2024-02-14T19:32:42.975Z,2.75
2024-02-14T19:35:10.116Z,2.83
2024-02-14T19:37:36.862Z,3.03
2024-02-14T19:40:07.192Z,2.70
2024-02-14T19:42:34.131Z,2.45
2024-02-14T19:45:00.973Z,2.75
2024-02-14T19:47:30.121Z,2.47
2024-02-14T19:49:57.116Z,2.42
2024-02-14T19:52:24.179Z,2.72
2024-02-14T19:54:50.884Z,2.72
2024-02-14T19:57:17.745Z,2.65
2024-02-14T19:59:44.540Z,2.72
2024-02-14T20:02:11.243Z,3.05
2024-02-14T20:04:38.498Z,3.00
2024-02-14T20:07:07.800Z,3.22
2024-02-14T20:09:35.101Z,3.17
2024-02-14T20:12:01.981Z,2.97
2024-02-14T20:14:28.952Z,3.38
2024-02-14T20:16:56.022Z,3.03
2024-02-14T20:19:23.057Z,2.65
2024-02-14T20:21:51.846Z,2.60
2024-02-14T20:24:18.792Z,2.35
2024-02-14T20:26:46.090Z,2.53
2024-02-14T20:29:12.942Z,3.20
2024-02-14T20:31:40.892Z,2.72
2024-02-14T20:34:07.963Z,2.72
2024-02-14T20:36:36.421Z,3.15
2024-02-14T20:39:04.140Z,3.03
2024-02-14T20:41:31.350Z,2.88
2024-02-14T20:43:58.402Z,2.60
2024-02-14T20:46:25.113Z,3.00
2024-02-14T20:48:53.055Z,2.50
2024-02-14T20:51:20.151Z,3.20
2024-02-14T20:53:46.964Z,3.03
2024-02-14T20:56:13.734Z,2.70
2024-02-14T20:58:52.137Z,2.80
2024-02-14T21:01:24.276Z,3.38
2024-02-14T21:03:54.249Z,2.95
2024-02-14T21:06:21.597Z,2.90
2024-02-14T21:08:48.572Z,3.10
2024-02-14T21:11:15.402Z,2.92
2024-02-14T21:13:42.108Z,3.15
2024-02-14T21:16:09.526Z,3.22
2024-02-14T21:18:37.073Z,3.33
2024-02-14T21:21:04.181Z,3.72
2024-02-14T21:23:31.796Z,3.33
2024-02-14T21:25:58.651Z,2.90
2024-02-14T21:28:25.568Z,3.60
2024-02-14T21:30:52.385Z,3.38
2024-02-14T21:33:19.312Z,3.45
2024-02-14T21:35:47.830Z,3.63
2024-02-14T21:38:16.822Z,3.28
2024-02-14T21:40:44.169Z,3.72
2024-02-14T21:43:10.935Z,3.63
2024-02-14T21:45:37.686Z,4.00
2024-02-14T21:48:06.298Z,3.35
2024-02-14T21:50:33.690Z,3.70
2024-02-14T21:53:00.499Z,3.70
2024-02-14T21:55:27.260Z,3.38
2024-02-14T21:57:54.005Z,3.60
2024-02-14T22:00:22.172Z,3.47
2024-02-14T22:02:51.274Z,3.70
2024-02-14T22:05:22.762Z,3.40
2024-02-14T22:07:49.824Z,4.13
2024-02-14T22:10:16.761Z,3.55
2024-02-14T22:12:43.953Z,3.40
2024-02-14T22:15:11.468Z,3.60
2024-02-14T22:17:39.069Z,3.80
2024-02-14T22:20:07.351Z,3.65
2024-02-14T22:22:36.368Z,3.75
2024-02-14T22:25:03.278Z,3.75
2024-02-14T22:27:29.991Z,3.72
2024-02-14T22:29:56.840Z,3.70
2024-02-14T22:32:23.889Z,4.32
2024-02-14T22:34:52.018Z,3.78
2024-02-14T22:37:18.997Z,3.50
2024-02-14T22:39:45.832Z,3.70
2024-02-14T22:42:12.846Z,4.00
2024-02-14T22:44:39.994Z,3.58
2024-02-14T22:47:10.779Z,3.80
2024-02-14T22:49:38.023Z,3.60
2024-02-14T22:52:05.342Z,3.83
2024-02-14T22:54:32.090Z,3.47
2024-02-14T22:56:58.862Z,3.22
2024-02-14T22:59:25.661Z,3.33
2024-02-14T23:01:52.855Z,3.50
2024-02-14T23:04:19.888Z,3.40
2024-02-14T23:06:48.130Z,3.80
2024-02-14T23:09:16.043Z,3.63
2024-02-14T23:11:43.557Z,4.15
2024-02-14T23:14:10.439Z,3.53
2024-02-14T23:16:37.298Z,4.57
2024-02-14T23:19:04.693Z,3.60
2024-02-14T23:21:31.743Z,3.55
2024-02-14T23:23:58.751Z,3.65
2024-02-14T23:26:26.706Z,3.42
2024-02-14T23:28:53.666Z,3.30
2024-02-14T23:31:21.763Z,3.20
2024-02-14T23:33:49.572Z,3.58
2024-02-14T23:36:18.271Z,3.40
2024-02-14T23:38:45.529Z,3.45
2024-02-14T23:41:13.415Z,3.80
2024-02-14T23:43:40.372Z,3.03
2024-02-14T23:46:10.611Z,3.08
2024-02-14T23:48:37.519Z,2.97
2024-02-14T23:51:04.480Z,3.88
2024-02-14T23:53:31.314Z,3.33
2024-02-14T23:55:58.944Z,3.40
2024-02-14T23:58:26.083Z,3.63
